GOOYDIAP

Guest
Details From GOOY - Dakar Leopold Sedar Senghor Intl
To DIAP - Abidjan Felix Houphouet Boigny Intl
Flight Number -
Tags generated
Created
Modified
Stats Distance 984 nm / 1,823 km
Max Altitude 35,000 ft / 10,668 m
Waypoints 15
Social Downloads 2
Likes 0
Share VATSIM

Download

Looking for another format? Having issues loading an existing format? Contact us
Advertisement - Login to hide

Notes

Basic altitude profile: - Ascent Rate: 2500ft/min - Ascent Speed: 250kts - Cruise Altitude: 35000ft - Cruise Speed: 420kts - Descent Rate: 1500ft/min - Descent Speed: 250kts Options: - Use NATs: yes - Use PACOTS: yes - Use low airways: no - Use high airways: yes

Route

GOOY YF UR979 AD DIAP

ID Type Via Altitude Latitude Longitude Leg Dist Tot Dist Heading (true) Name
O GOOY APT - 0 ft / 0 m 14.73971˚ -17.49023˚ - 0 nm - Dakar Leopold Sedar Senghor Intl
YF VOR - 300 ft / 91 m 14.74483˚ -17.47478˚ 0 nm 0 nm 71° / 71° DAKAR VOR-DME
ERIDI FIX UR979 (AWY-HI) 35,000 ft / 10,668 m 13.19333˚ -15.13028˚ 165 nm 166 nm 124° / 125° -
KOMAB FIX UR979 (AWY-HI) 35,000 ft / 10,668 m 12.74667˚ -14.46722˚ 47 nm 213 nm 125° / 125° -
BADIA FIX UR979 (AWY-HI) 35,000 ft / 10,668 m 12.26667˚ -13.76667˚ 50 nm 263 nm 125° / 125° -
NASLO FIX UR979 (AWY-HI) 35,000 ft / 10,668 m 11.78333˚ -13.15000˚ 46 nm 310 nm 129° / 129° -
LUGMI FIX UR979 (AWY-HI) 35,000 ft / 10,668 m 11.25000˚ -12.36667˚ 56 nm 366 nm 125° / 125° -
KOLIP FIX UR979 (AWY-HI) 35,000 ft / 10,668 m 10.66667˚ -11.55000˚ 59 nm 425 nm 126° / 126° -
BUNAP FIX UR979 (AWY-HI) 35,000 ft / 10,668 m 10.25000˚ -11.00000˚ 41 nm 466 nm 128° / 128° -
ARBAL FIX UR979 (AWY-HI) 35,000 ft / 10,668 m 10.10000˚ -10.71667˚ 19 nm 485 nm 118° / 118° -
NANAN FIX UR979 (AWY-HI) 35,000 ft / 10,668 m 9.05000˚ -9.28333˚ 105 nm 591 nm 126° / 127° -
ERMIT FIX UR979 (AWY-HI) 35,000 ft / 10,668 m 8.36667˚ -8.28333˚ 72 nm 663 nm 125° / 125° -
POKSO FIX UR979 (AWY-HI) 31,400 ft / 9,571 m 6.75639˚ -5.94750˚ 169 nm 833 nm 125° / 125° -
AD VOR UR979 (AWY-HI) 23,500 ft / 7,163 m 5.27719˚ -3.91931˚ 150 nm 983 nm 126° / 126° ABIDJAN VOR-DME
O DIAP APT - 0 ft / 0 m 5.26139˚ -3.92630˚ 1 nm 984 nm 204° / 204° Abidjan Felix Houphouet Boigny Intl

Altitude Profile

Advertisement - Login to hide

Weather


0- 5 10 15 20 25 30 35+ Temperature / ° C

Clouds and Precipitation
Forecast for 2017-12-17 06:00 UTC. Updated 2 hours ago

Ground ~20,000 ft ~40,000 ft Winds

GOOY

Details ICAO GOOY (DKR)
Name Dakar Leopold Sedar Senghor Intl
Region Senegal
Timezone Africa/Dakar (UTC+0.0)
Stats Elevation 85 ft / 26 m (AMSL)
Location 14.739711° -17.490226°
Runways 2
Magnetic Variation 7.346° W

METAR

GOOY 170600Z 04012KT 8000 NSC 21/16 Q1015

Decode

TAF

TAF GOOY 170530Z 1706/1812 02014KT 8000 NSC= TAF GBYD 170530Z 1706/1812 02008KT 8000 NSC

Decode

Departure Runways

ID Width Length Bearing (true) Bearing (mag) Surface Threshold Offset Overrun Length
03 98 ft / 30 m 4,921 ft / 1,500 m 22.31° 29.66° Asphalt 0 ft / 0 m 98 ft / 30 m
18 148 ft / 45 m 11,511 ft / 3,509 m 172.57° 179.92° Asphalt 525 ft / 160 m 197 ft / 60 m
21 98 ft / 30 m 4,921 ft / 1,500 m 202.31° 209.66° Asphalt 0 ft / 0 m 1,590 ft / 485 m
36 148 ft / 45 m 11,511 ft / 3,509 m 352.57° 359.92° Asphalt 0 ft / 0 m 197 ft / 60 m

DIAP

Details ICAO DIAP (ABJ)
Name Abidjan Felix Houphouet Boigny Intl
Region Côte d'Ivoire
Timezone Africa/Abidjan (UTC+0.0)
Stats Elevation 21 ft / 6 m (AMSL)
Location 5.261386° -3.926296°
Runways 1
Magnetic Variation 4.682° W

METAR

DIAP 170600Z 30002KT 8000 FEW011 BKN040 26/23 Q1011 NOSIG

Decode

TAF

TAF DIAP 170500Z 1706/1812 VRB02KT 7000 SCT012 BKN040 PROB30 TEMPO 1706/1708 2000 BR BECMG 1709/1711 24010KT BKN012 PROB30 TEMPO 1715/1721 TS BKN012 FEW020CB

Decode

Destination Runways

ID Width Length Bearing (true) Bearing (mag) Surface Threshold Offset Overrun Length
03 164 ft / 50 m 9,889 ft / 3,014 m 22.27° 26.95° Asphalt 0 ft / 0 m 197 ft / 60 m
21 164 ft / 50 m 9,889 ft / 3,014 m 202.27° 206.95° Asphalt 0 ft / 0 m 328 ft / 100 m

Approach Navaids

Runway Type Ident Frequency Range Bearing (true) Bearing (mag) Slope Elevation
21 Localiser AN 110.30 MHz 18 nm / 33 km 201.45° 206.14° - 13 ft / 4 m (AMSL)
21 Glidescope AN 110.30 MHz 10 nm / 19 km 202.27° 206.95° 3.00° 24 ft / 7 m (AMSL)
21 DME AN 110.30 MHz 18 nm / 33 km - - - 24 ft / 7 m (AMSL)

Popular Alternatives